sensor_id;sensor_type;location;lat;lon;timestamp;pressure;altitude;pressure_sealevel;temperature;humidity
27146;BME280;17980;51.744;7.190;2022-09-09T00:00:34;100355.73;;;18.88;100.00
27146;BME280;17980;51.744;7.190;2022-09-09T00:03:06;100355.81;;;18.84;100.00
27146;BME280;17980;51.744;7.190;2022-09-09T00:08:18;100364.76;;;18.99;100.00
27146;BME280;17980;51.744;7.190;2022-09-09T00:10:47;100357.95;;;19.02;100.00
27146;BME280;17980;51.744;7.190;2022-09-09T00:13:19;100370.18;;;18.97;100.00
27146;BME280;17980;51.744;7.190;2022-09-09T00:18:31;100367.52;;;19.13;100.00
27146;BME280;17980;51.744;7.190;2022-09-09T00:21:05;100373.16;;;19.08;100.00
27146;BME280;17980;51.744;7.190;2022-09-09T00:23:35;100360.89;;;19.20;100.00
27146;BME280;17980;51.744;7.190;2022-09-09T00:26:08;100362.06;;;19.22;100.00
27146;BME280;17980;51.744;7.190;2022-09-09T00:28:39;100357.06;;;19.28;100.00
27146;BME280;17980;51.744;7.190;2022-09-09T00:31:13;100360.49;;;19.17;100.00
27146;BME280;17980;51.744;7.190;2022-09-09T00:33:42;100363.53;;;19.31;100.00
27146;BME280;17980;51.744;7.190;2022-09-09T00:36:13;100359.06;;;19.30;100.00
27146;BME280;17980;51.744;7.190;2022-09-09T00:38:46;100360.13;;;19.29;100.00
27146;BME280;17980;51.744;7.190;2022-09-09T00:41:18;100349.61;;;19.22;100.00
27146;BME280;17980;51.744;7.190;2022-09-09T00:43:52;100356.64;;;19.18;100.00
27146;BME280;17980;51.744;7.190;2022-09-09T00:49:24;100349.00;;;18.80;100.00
27146;BME280;17980;51.744;7.190;2022-09-09T00:51:58;100352.42;;;19.08;100.00
27146;BME280;17980;51.744;7.190;2022-09-09T00:54:43;100342.64;;;18.99;100.00
27146;BME280;17980;51.744;7.190;2022-09-09T00:57:19;100344.23;;;19.04;100.00
27146;BME280;17980;51.744;7.190;2022-09-09T01:02:28;100350.04;;;19.25;100.00
27146;BME280;17980;51.744;7.190;2022-09-09T01:07:36;100351.15;;;19.04;100.00
27146;BME280;17980;51.744;7.190;2022-09-09T01:10:08;100349.98;;;18.83;100.00
27146;BME280;17980;51.744;7.190;2022-09-09T01:15:17;100350.93;;;18.79;100.00
27146;BME280;17980;51.744;7.190;2022-09-09T01:20:38;100353.92;;;18.91;100.00
27146;BME280;17980;51.744;7.190;2022-09-09T01:23:19;100358.38;;;18.79;100.00
27146;BME280;17980;51.744;7.190;2022-09-09T01:28:43;100354.02;;;18.73;100.00
27146;BME280;17980;51.744;7.190;2022-09-09T01:31:15;100349.03;;;18.66;100.00
27146;BME280;17980;51.744;7.190;2022-09-09T01:33:43;100352.95;;;18.68;100.00
27146;BME280;17980;51.744;7.190;2022-09-09T01:36:13;100349.56;;;18.66;100.00
27146;BME280;17980;51.744;7.190;2022-09-09T01:38:43;100351.17;;;18.64;100.00
27146;BME280;17980;51.744;7.190;2022-09-09T01:41:11;100350.30;;;18.64;100.00
27146;BME280;17980;51.744;7.190;2022-09-09T01:43:38;100356.56;;;18.68;100.00
27146;BME280;17980;51.744;7.190;2022-09-09T01:46:05;100348.05;;;18.76;100.00
27146;BME280;17980;51.744;7.190;2022-09-09T01:48:33;100346.05;;;18.74;100.00
27146;BME280;17980;51.744;7.190;2022-09-09T01:51:00;100347.54;;;18.70;100.00
27146;BME280;17980;51.744;7.190;2022-09-09T01:53:27;100342.85;;;18.71;100.00
27146;BME280;17980;51.744;7.190;2022-09-09T01:56:09;100343.61;;;18.75;100.00
27146;BME280;17980;51.744;7.190;2022-09-09T01:58:40;100337.66;;;18.92;100.00
27146;BME280;17980;51.744;7.190;2022-09-09T02:01:10;100344.02;;;18.99;100.00
27146;BME280;17980;51.744;7.190;2022-09-09T02:03:38;100341.69;;;19.09;100.00
27146;BME280;17980;51.744;7.190;2022-09-09T02:08:49;100341.36;;;19.02;100.00
27146;BME280;17980;51.744;7.190;2022-09-09T02:11:18;100349.04;;;18.93;100.00
27146;BME280;17980;51.744;7.190;2022-09-09T02:13:48;100348.20;;;18.92;100.00
27146;BME280;17980;51.744;7.190;2022-09-09T02:16:20;100354.89;;;18.87;100.00
27146;BME280;17980;51.744;7.190;2022-09-09T02:18:49;100354.23;;;18.79;100.00
27146;BME280;17980;51.744;7.190;2022-09-09T02:21:18;100356.35;;;18.83;100.00
27146;BME280;17980;51.744;7.190;2022-09-09T02:23:47;100353.30;;;18.89;100.00
27146;BME280;17980;51.744;7.190;2022-09-09T02:26:19;100358.38;;;18.79;100.00
27146;BME280;17980;51.744;7.190;2022-09-09T02:28:51;100354.89;;;18.87;100.00
27146;BME280;17980;51.744;7.190;2022-09-09T02:34:01;100357.88;;;18.92;100.00
27146;BME280;17980;51.744;7.190;2022-09-09T02:39:27;100357.55;;;18.98;100.00
27146;BME280;17980;51.744;7.190;2022-09-09T02:41:54;100356.57;;;18.82;100.00
27146;BME280;17980;51.744;7.190;2022-09-09T02:44:21;100356.38;;;18.70;100.00
27146;BME280;17980;51.744;7.190;2022-09-09T02:49:40;100354.53;;;18.80;100.00
27146;BME280;17980;51.744;7.190;2022-09-09T02:52:08;100352.41;;;18.68;100.00
27146;BME280;17980;51.744;7.190;2022-09-09T02:57:19;100355.70;;;19.08;100.00
27146;BME280;17980;51.744;7.190;2022-09-09T02:59:47;100356.64;;;19.18;100.00
27146;BME280;17980;51.744;7.190;2022-09-09T03:02:14;100356.97;;;19.19;100.00
27146;BME280;17980;51.744;7.190;2022-09-09T03:07:19;100351.31;;;19.23;100.00
27146;BME280;17980;51.744;7.190;2022-09-09T03:09:46;100357.08;;;19.15;100.00
27146;BME280;17980;51.744;7.190;2022-09-09T03:12:14;100351.86;;;19.22;100.00
27146;BME280;17980;51.744;7.190;2022-09-09T03:14:41;100345.22;;;19.37;100.00
27146;BME280;17980;51.744;7.190;2022-09-09T03:17:09;100350.09;;;19.41;100.00
27146;BME280;17980;51.744;7.190;2022-09-09T03:19:37;100352.13;;;19.43;100.00
27146;BME280;17980;51.744;7.190;2022-09-09T03:22:04;100344.88;;;19.42;100.00
27146;BME280;17980;51.744;7.190;2022-09-09T03:24:32;100343.67;;;19.48;100.00
27146;BME280;17980;51.744;7.190;2022-09-09T03:26:59;100343.67;;;19.48;100.00
27146;BME280;17980;51.744;7.190;2022-09-09T03:29:26;100341.34;;;19.44;100.00
27146;BME280;17980;51.744;7.190;2022-09-09T03:31:58;100339.80;;;19.39;100.00
27146;BME280;17980;51.744;7.190;2022-09-09T03:34:47;100342.69;;;19.29;100.00
27146;BME280;17980;51.744;7.190;2022-09-09T03:37:20;100338.25;;;19.21;100.00
27146;BME280;17980;51.744;7.190;2022-09-09T03:42:24;100335.38;;;19.18;100.00
27146;BME280;17980;51.744;7.190;2022-09-09T03:44:51;100332.34;;;18.97;100.00
27146;BME280;17980;51.744;7.190;2022-09-09T03:47:19;100322.75;;;18.86;100.00
27146;BME280;17980;51.744;7.190;2022-09-09T03:49:48;100330.34;;;18.88;100.00
27146;BME280;17980;51.744;7.190;2022-09-09T03:52:15;100331.37;;;18.81;100.00
27146;BME280;17980;51.744;7.190;2022-09-09T03:54:42;100332.78;;;18.87;100.00
27146;BME280;17980;51.744;7.190;2022-09-09T03:57:10;100328.38;;;18.82;100.00
27146;BME280;17980;51.744;7.190;2022-09-09T03:59:37;100335.41;;;18.85;100.00
27146;BME280;17980;51.744;7.190;2022-09-09T04:02:04;100328.96;;;18.88;100.00
27146;BME280;17980;51.744;7.190;2022-09-09T04:04:32;100326.59;;;18.92;100.00
27146;BME280;17980;51.744;7.190;2022-09-09T04:06:59;100331.39;;;18.94;100.00
27146;BME280;17980;51.744;7.190;2022-09-09T04:09:26;100330.12;;;18.90;100.00
27146;BME280;17980;51.744;7.190;2022-09-09T04:11:53;100332.45;;;18.93;100.00
27146;BME280;17980;51.744;7.190;2022-09-09T04:14:21;100332.45;;;18.93;100.00
27146;BME280;17980;51.744;7.190;2022-09-09T04:16:49;100341.70;;;18.83;100.00
27146;BME280;17980;51.744;7.190;2022-09-09T04:19:16;100335.31;;;18.62;100.00
27146;BME280;17980;51.744;7.190;2022-09-09T04:21:43;100341.59;;;18.60;100.00
27146;BME280;17980;51.744;7.190;2022-09-09T04:24:11;100346.04;;;18.61;100.00
27146;BME280;17980;51.744;7.190;2022-09-09T04:26:38;100344.56;;;18.72;100.00
27146;BME280;17980;51.744;7.190;2022-09-09T04:29:05;100347.42;;;18.61;100.00
27146;BME280;17980;51.744;7.190;2022-09-09T04:34:11;100353.81;;;18.55;100.00
27146;BME280;17980;51.744;7.190;2022-09-09T04:36:38;100354.56;;;18.53;100.00
27146;BME280;17980;51.744;7.190;2022-09-09T04:39:07;100349.13;;;18.42;100.00
27146;BME280;17980;51.744;7.190;2022-09-09T04:41:34;100348.48;;;18.47;100.00
27146;BME280;17980;51.744;7.190;2022-09-09T04:44:02;100348.28;;;18.55;100.00
27146;BME280;17980;51.744;7.190;2022-09-09T04:49:09;100344.77;;;18.70;100.00
27146;BME280;17980;51.744;7.190;2022-09-09T04:51:36;100345.41;;;18.59;100.00
27146;BME280;17980;51.744;7.190;2022-09-09T04:54:04;100344.26;;;18.64;100.00
27146;BME280;17980;51.744;7.190;2022-09-09T04:56:32;100338.81;;;18.67;100.00
27146;BME280;17980;51.744;7.190;2022-09-09T04:58:59;100341.90;;;18.68;100.00
27146;BME280;17980;51.744;7.190;2022-09-09T05:01:26;100342.31;;;18.78;100.00
27146;BME280;17980;51.744;7.190;2022-09-09T05:03:55;100343.30;;;18.88;100.00
27146;BME280;17980;51.744;7.190;2022-09-09T05:06:23;100347.44;;;18.88;100.00
27146;BME280;17980;51.744;7.190;2022-09-09T05:08:51;100344.75;;;18.84;100.00
27146;BME280;17980;51.744;7.190;2022-09-09T05:11:21;100344.56;;;18.99;100.00
27146;BME280;17980;51.744;7.190;2022-09-09T05:13:50;100349.98;;;19.03;100.00
27146;BME280;17980;51.744;7.190;2022-09-09T05:18:54;100347.79;;;19.25;100.00
27146;BME280;17980;51.744;7.190;2022-09-09T05:21:23;100352.20;;;19.10;100.00
27146;BME280;17980;51.744;7.190;2022-09-09T05:23:51;100348.05;;;19.17;100.00
27146;BME280;17980;51.744;7.190;2022-09-09T05:26:20;100342.13;;;19.00;100.00
27146;BME280;17980;51.744;7.190;2022-09-09T05:28:48;100343.30;;;18.95;100.00
27146;BME280;17980;51.744;7.190;2022-09-09T05:31:16;100350.20;;;18.88;100.00
27146;BME280;17980;51.744;7.190;2022-09-09T05:33:45;100345.19;;;18.81;100.00
27146;BME280;17980;51.744;7.190;2022-09-09T05:36:15;100339.15;;;18.95;100.00
27146;BME280;17980;51.744;7.190;2022-09-09T05:38:43;100340.70;;;19.13;100.00
27146;BME280;17980;51.744;7.190;2022-09-09T05:41:12;100344.91;;;19.29;100.00
27146;BME280;17980;51.744;7.190;2022-09-09T05:43:42;100343.19;;;19.35;100.00
27146;BME280;17980;51.744;7.190;2022-09-09T05:48:50;100336.76;;;19.48;100.00
27146;BME280;17980;51.744;7.190;2022-09-09T05:51:20;100335.08;;;19.47;100.00
27146;BME280;17980;51.744;7.190;2022-09-09T05:53:48;100336.86;;;19.50;100.00
27146;BME280;17980;51.744;7.190;2022-09-09T05:56:17;100332.25;;;19.60;100.00
27146;BME280;17980;51.744;7.190;2022-09-09T05:58:46;100336.36;;;19.44;100.00
27146;BME280;17980;51.744;7.190;2022-09-09T06:01:15;100338.27;;;19.07;100.00
27146;BME280;17980;51.744;7.190;2022-09-09T06:03:45;100338.23;;;19.50;100.00
27146;BME280;17980;51.744;7.190;2022-09-09T06:06:14;100341.47;;;19.70;100.00
27146;BME280;17980;51.744;7.190;2022-09-09T06:08:43;100337.71;;;19.80;100.00
27146;BME280;17980;51.744;7.190;2022-09-09T06:13:49;100338.81;;;20.11;100.00
27146;BME280;17980;51.744;7.190;2022-09-09T06:16:19;100333.70;;;20.15;100.00
27146;BME280;17980;51.744;7.190;2022-09-09T06:18:49;100336.17;;;20.07;100.00
27146;BME280;17980;51.744;7.190;2022-09-09T06:21:18;100336.66;;;19.81;100.00
27146;BME280;17980;51.744;7.190;2022-09-09T06:23:46;100343.55;;;20.20;100.00
27146;BME280;17980;51.744;7.190;2022-09-09T06:26:16;100343.42;;;20.24;100.00
27146;BME280;17980;51.744;7.190;2022-09-09T06:28:44;100338.97;;;20.48;100.00
27146;BME280;17980;51.744;7.190;2022-09-09T06:31:13;100339.19;;;20.78;99.27
27146;BME280;17980;51.744;7.190;2022-09-09T06:33:42;100341.97;;;20.78;98.28
27146;BME280;17980;51.744;7.190;2022-09-09T06:36:12;100348.22;;;20.51;99.87
27146;BME280;17980;51.744;7.190;2022-09-09T06:38:41;100343.93;;;20.30;100.00
27146;BME280;17980;51.744;7.190;2022-09-09T06:41:09;100341.97;;;19.99;100.00
27146;BME280;17980;51.744;7.190;2022-09-09T06:46:21;100350.06;;;20.48;100.00
27146;BME280;17980;51.744;7.190;2022-09-09T06:48:49;100342.77;;;20.54;99.98
27146;BME280;17980;51.744;7.190;2022-09-09T06:53:56;100347.85;;;20.57;100.00
27146;BME280;17980;51.744;7.190;2022-09-09T06:56:25;100352.76;;;20.29;100.00
27146;BME280;17980;51.744;7.190;2022-09-09T06:58:54;100353.92;;;20.47;100.00
27146;BME280;17980;51.744;7.190;2022-09-09T07:01:23;100353.89;;;20.79;99.15
27146;BME280;17980;51.744;7.190;2022-09-09T07:03:52;100353.05;;;20.78;97.74
27146;BME280;17980;51.744;7.190;2022-09-09T07:09:00;100356.13;;;20.63;100.00
27146;BME280;17980;51.744;7.190;2022-09-09T07:11:29;100361.64;;;20.38;100.00
27146;BME280;17980;51.744;7.190;2022-09-09T07:13:58;100359.78;;;20.16;100.00
27146;BME280;17980;51.744;7.190;2022-09-09T07:19:04;100359.70;;;20.87;100.00
27146;BME280;17980;51.744;7.190;2022-09-09T07:21:32;100357.86;;;20.99;98.08
27146;BME280;17980;51.744;7.190;2022-09-09T07:24:02;100355.72;;;21.01;97.19
27146;BME280;17980;51.744;7.190;2022-09-09T07:26:30;100363.05;;;20.79;98.07
27146;BME280;17980;51.744;7.190;2022-09-09T07:28:57;100364.12;;;20.62;99.07
27146;BME280;17980;51.744;7.190;2022-09-09T07:31:26;100365.08;;;20.81;98.23
27146;BME280;17980;51.744;7.190;2022-09-09T07:39:12;100366.73;;;23.18;87.18
27146;BME280;17980;51.744;7.190;2022-09-09T07:41:41;100359.44;;;23.29;85.14
27146;BME280;17980;51.744;7.190;2022-09-09T07:44:11;100363.92;;;24.23;80.88
27146;BME280;17980;51.744;7.190;2022-09-09T07:49:16;100364.02;;;28.22;66.75
27146;BME280;17980;51.744;7.190;2022-09-09T07:51:46;100361.09;;;24.06;77.67
27146;BME280;17980;51.744;7.190;2022-09-09T07:54:16;100368.85;;;22.92;84.68
27146;BME280;17980;51.744;7.190;2022-09-09T07:56:45;100372.81;;;22.40;86.87
27146;BME280;17980;51.744;7.190;2022-09-09T07:59:13;100371.67;;;22.38;86.72
27146;BME280;17980;51.744;7.190;2022-09-09T08:04:19;100374.93;;;21.49;92.13
27146;BME280;17980;51.744;7.190;2022-09-09T08:06:49;100372.96;;;21.65;91.24
27146;BME280;17980;51.744;7.190;2022-09-09T08:09:18;100371.55;;;21.47;91.33
27146;BME280;17980;51.744;7.190;2022-09-09T08:11:45;100379.33;;;22.03;90.30
27146;BME280;17980;51.744;7.190;2022-09-09T08:14:13;100372.95;;;23.61;84.10
27146;BME280;17980;51.744;7.190;2022-09-09T08:16:42;100376.00;;;24.00;81.10
27146;BME280;17980;51.744;7.190;2022-09-09T08:19:10;100377.96;;;23.73;80.19
27146;BME280;17980;51.744;7.190;2022-09-09T08:21:39;100370.31;;;25.03;75.05
27146;BME280;17980;51.744;7.190;2022-09-09T08:24:07;100367.05;;;27.44;67.35
27146;BME280;17980;51.744;7.190;2022-09-09T08:26:36;100372.59;;;23.83;76.84
27146;BME280;17980;51.744;7.190;2022-09-09T08:29:05;100364.83;;;23.97;79.41
27146;BME280;17980;51.744;7.190;2022-09-09T08:31:34;100363.44;;;23.33;80.69
27146;BME280;17980;51.744;7.190;2022-09-09T08:34:03;100366.14;;;22.83;82.69
27146;BME280;17980;51.744;7.190;2022-09-09T08:39:12;100381.05;;;22.67;84.37
27146;BME280;17980;51.744;7.190;2022-09-09T08:41:55;100389.37;;;22.56;84.86
27146;BME280;17980;51.744;7.190;2022-09-09T08:44:30;100381.31;;;22.05;84.17
27146;BME280;17980;51.744;7.190;2022-09-09T08:52:52;100388.78;;;26.87;65.12
27146;BME280;17980;51.744;7.190;2022-09-09T08:55:29;100385.98;;;29.28;58.03
27146;BME280;17980;51.744;7.190;2022-09-09T08:57:59;100386.56;;;26.07;62.09
27146;BME280;17980;51.744;7.190;2022-09-09T09:03:13;100378.42;;;28.95;57.49
27146;BME280;17980;51.744;7.190;2022-09-09T09:05:46;100387.98;;;28.89;54.84
27146;BME280;17980;51.744;7.190;2022-09-09T09:08:17;100386.69;;;26.72;59.03
27146;BME280;17980;51.744;7.190;2022-09-09T09:10:47;100389.14;;;25.47;62.95
27146;BME280;17980;51.744;7.190;2022-09-09T09:15:58;100397.95;;;24.85;65.93
27146;BME280;17980;51.744;7.190;2022-09-09T09:21:06;100398.88;;;22.69;71.93
27146;BME280;17980;51.744;7.190;2022-09-09T09:23:39;100382.77;;;23.63;70.42
27146;BME280;17980;51.744;7.190;2022-09-09T09:28:56;100389.77;;;30.76;52.04
27146;BME280;17980;51.744;7.190;2022-09-09T09:31:25;100391.38;;;31.49;49.71
27146;BME280;17980;51.744;7.190;2022-09-09T09:33:55;100392.20;;;33.56;46.13
27146;BME280;17980;51.744;7.190;2022-09-09T09:36:25;100384.19;;;30.73;49.28
27146;BME280;17980;51.744;7.190;2022-09-09T09:38:55;100387.18;;;32.16;47.77
27146;BME280;17980;51.744;7.190;2022-09-09T09:41:34;100389.05;;;30.63;49.09
27146;BME280;17980;51.744;7.190;2022-09-09T09:46:40;100386.83;;;28.75;55.09
27146;BME280;17980;51.744;7.190;2022-09-09T09:49:10;100384.28;;;30.11;51.11
27146;BME280;17980;51.744;7.190;2022-09-09T09:51:38;100390.89;;;29.78;50.98
27146;BME280;17980;51.744;7.190;2022-09-09T09:54:16;100385.41;;;29.36;50.54
27146;BME280;17980;51.744;7.190;2022-09-09T09:56:45;100395.26;;;26.33;58.05
27146;BME280;17980;51.744;7.190;2022-09-09T09:59:33;100392.16;;;26.07;58.81
27146;BME280;17980;51.744;7.190;2022-09-09T10:01:53;100388.82;;;25.43;60.95
27146;BME280;17980;51.744;7.190;2022-09-09T10:04:22;100393.42;;;24.07;63.95
27146;BME280;17980;51.744;7.190;2022-09-09T10:06:50;100390.13;;;23.96;63.93
27146;BME280;17980;51.744;7.190;2022-09-09T10:09:23;100393.56;;;25.09;61.45
27146;BME280;17980;51.744;7.190;2022-09-09T10:11:56;100388.04;;;25.48;59.69
27146;BME280;17980;51.744;7.190;2022-09-09T10:14:28;100392.48;;;25.10;61.17
27146;BME280;17980;51.744;7.190;2022-09-09T10:19:41;100394.75;;;25.13;61.65
27146;BME280;17980;51.744;7.190;2022-09-09T10:25:07;100386.78;;;25.39;59.43
27146;BME280;17980;51.744;7.190;2022-09-09T10:27:40;100390.38;;;24.83;60.93
27146;BME280;17980;51.744;7.190;2022-09-09T10:30:13;100385.17;;;25.26;60.46
27146;BME280;17980;51.744;7.190;2022-09-09T10:32:46;100389.80;;;24.81;61.18
27146;BME280;17980;51.744;7.190;2022-09-09T10:35:26;100384.72;;;24.95;60.68
27146;BME280;17980;51.744;7.190;2022-09-09T10:41:19;100376.13;;;25.36;60.43
27146;BME280;17980;51.744;7.190;2022-09-09T10:44:05;100382.94;;;25.25;59.75
27146;BME280;17980;51.744;7.190;2022-09-09T10:49:19;100381.23;;;24.25;62.16
27146;BME280;17980;51.744;7.190;2022-09-09T10:51:50;100373.12;;;24.69;61.62
27146;BME280;17980;51.744;7.190;2022-09-09T10:54:30;100373.03;;;25.54;59.48
27146;BME280;17980;51.744;7.190;2022-09-09T10:57:00;100370.92;;;25.64;59.34
27146;BME280;17980;51.744;7.190;2022-09-09T10:59:30;100371.63;;;25.32;60.34
27146;BME280;17980;51.744;7.190;2022-09-09T11:04:39;100368.19;;;24.74;61.11
27146;BME280;17980;51.744;7.190;2022-09-09T11:09:49;100368.86;;;24.35;62.06
27146;BME280;17980;51.744;7.190;2022-09-09T11:12:19;100362.18;;;23.91;62.13
27146;BME280;17980;51.744;7.190;2022-09-09T11:14:49;100357.59;;;23.72;61.94
27146;BME280;17980;51.744;7.190;2022-09-09T11:17:20;100361.76;;;24.59;60.87
27146;BME280;17980;51.744;7.190;2022-09-09T11:19:49;100365.36;;;24.57;60.05
27146;BME280;17980;51.744;7.190;2022-09-09T11:22:22;100367.30;;;25.05;58.85
27146;BME280;17980;51.744;7.190;2022-09-09T11:24:54;100357.25;;;25.26;57.72
27146;BME280;17980;51.744;7.190;2022-09-09T11:30:19;100375.74;;;25.30;57.45
27146;BME280;17980;51.744;7.190;2022-09-09T11:35:49;100391.58;;;24.41;58.81
27146;BME280;17980;51.744;7.190;2022-09-09T11:38:20;100371.81;;;24.43;60.71
27146;BME280;17980;51.744;7.190;2022-09-09T11:43:33;100377.19;;;24.96;58.84
27146;BME280;17980;51.744;7.190;2022-09-09T11:46:03;100371.54;;;25.10;58.33
27146;BME280;17980;51.744;7.190;2022-09-09T11:48:33;100365.66;;;25.29;57.58
27146;BME280;17980;51.744;7.190;2022-09-09T11:51:04;100367.33;;;25.27;57.47
27146;BME280;17980;51.744;7.190;2022-09-09T11:53:32;100362.30;;;25.43;57.15
27146;BME280;17980;51.744;7.190;2022-09-09T11:56:04;100361.64;;;25.19;57.39
27146;BME280;17980;51.744;7.190;2022-09-09T11:58:36;100367.91;;;25.09;58.07
27146;BME280;17980;51.744;7.190;2022-09-09T12:01:15;100362.17;;;25.19;58.43
27146;BME280;17980;51.744;7.190;2022-09-09T12:06:26;100350.11;;;24.96;58.54
27146;BME280;17980;51.744;7.190;2022-09-09T12:08:56;100358.33;;;24.69;59.91
27146;BME280;17980;51.744;7.190;2022-09-09T12:14:03;100360.96;;;25.71;58.52
27146;BME280;17980;51.744;7.190;2022-09-09T12:16:32;100358.87;;;26.05;56.77
27146;BME280;17980;51.744;7.190;2022-09-09T12:19:12;100361.98;;;26.36;56.40
27146;BME280;17980;51.744;7.190;2022-09-09T12:21:38;100359.77;;;25.25;58.69
27146;BME280;17980;51.744;7.190;2022-09-09T12:26:50;100368.94;;;24.55;60.23
27146;BME280;17980;51.744;7.190;2022-09-09T12:29:24;100360.50;;;24.35;61.65
27146;BME280;17980;51.744;7.190;2022-09-09T12:34:36;100364.79;;;24.89;60.62
27146;BME280;17980;51.744;7.190;2022-09-09T12:37:08;100365.47;;;24.62;61.28
27146;BME280;17980;51.744;7.190;2022-09-09T12:39:39;100368.25;;;24.02;62.35
27146;BME280;17980;51.744;7.190;2022-09-09T12:42:16;100377.82;;;23.53;66.03
27146;BME280;17980;51.744;7.190;2022-09-09T12:44:55;100387.06;;;23.09;68.50
27146;BME280;17980;51.744;7.190;2022-09-09T12:47:26;100399.02;;;22.23;79.26
27146;BME280;17980;51.744;7.190;2022-09-09T12:49:54;100387.30;;;20.75;95.76
27146;BME280;17980;51.744;7.190;2022-09-09T12:52:26;100371.63;;;20.87;97.86
27146;BME280;17980;51.744;7.190;2022-09-09T12:54:57;100368.44;;;20.74;98.55
27146;BME280;17980;51.744;7.190;2022-09-09T12:57:28;100366.96;;;21.06;99.25
27146;BME280;17980;51.744;7.190;2022-09-09T13:00:05;100363.87;;;21.58;99.32
27146;BME280;17980;51.744;7.190;2022-09-09T13:02:32;100358.92;;;21.60;98.92
27146;BME280;17980;51.744;7.190;2022-09-09T13:05:11;100363.14;;;21.81;96.25
27146;BME280;17980;51.744;7.190;2022-09-09T13:07:40;100364.40;;;21.76;95.76
27146;BME280;17980;51.744;7.190;2022-09-09T13:10:11;100361.39;;;22.08;95.07
27146;BME280;17980;51.744;7.190;2022-09-09T13:12:39;100358.92;;;21.70;94.73
27146;BME280;17980;51.744;7.190;2022-09-09T13:15:16;100357.39;;;22.04;93.36
27146;BME280;17980;51.744;7.190;2022-09-09T13:17:49;100351.01;;;22.25;93.35
27146;BME280;17980;51.744;7.190;2022-09-09T13:20:19;100345.91;;;22.64;92.73
27146;BME280;17980;51.744;7.190;2022-09-09T13:22:48;100353.17;;;22.65;92.51
27146;BME280;17980;51.744;7.190;2022-09-09T13:25:23;100357.02;;;22.52;90.03
27146;BME280;17980;51.744;7.190;2022-09-09T13:27:57;100361.33;;;22.57;90.10
27146;BME280;17980;51.744;7.190;2022-09-09T13:30:27;100410.48;;;22.87;90.30
27146;BME280;17980;51.744;7.190;2022-09-09T13:33:04;100389.95;;;21.32;97.23
27146;BME280;17980;51.744;7.190;2022-09-09T13:38:09;100384.02;;;20.85;100.00
27146;BME280;17980;51.744;7.190;2022-09-09T13:40:38;100386.86;;;20.46;100.00
27146;BME280;17980;51.744;7.190;2022-09-09T13:43:05;100383.39;;;20.67;100.00
27146;BME280;17980;51.744;7.190;2022-09-09T13:45:36;100385.17;;;20.77;100.00
27146;BME280;17980;51.744;7.190;2022-09-09T13:48:10;100390.26;;;20.64;100.00
27146;BME280;17980;51.744;7.190;2022-09-09T13:50:37;100390.35;;;20.35;100.00
27146;BME280;17980;51.744;7.190;2022-09-09T13:53:04;100383.47;;;20.85;100.00
27146;BME280;17980;51.744;7.190;2022-09-09T13:58:16;100390.99;;;20.69;100.00
27146;BME280;17980;51.744;7.190;2022-09-09T14:00:45;100395.00;;;21.51;100.00
27146;BME280;17980;51.744;7.190;2022-09-09T14:03:13;100398.63;;;20.67;100.00
27146;BME280;17980;51.744;7.190;2022-09-09T14:05:40;100388.55;;;21.13;100.00
27146;BME280;17980;51.744;7.190;2022-09-09T14:10:47;100381.31;;;21.56;100.00
27146;BME280;17980;51.744;7.190;2022-09-09T14:13:14;100382.85;;;21.52;100.00
27146;BME280;17980;51.744;7.190;2022-09-09T14:15:42;100384.91;;;21.75;100.00
27146;BME280;17980;51.744;7.190;2022-09-09T14:18:12;100382.62;;;21.54;100.00
27146;BME280;17980;51.744;7.190;2022-09-09T14:20:40;100377.97;;;22.15;99.57
27146;BME280;17980;51.744;7.190;2022-09-09T14:23:10;100385.98;;;21.74;100.00
27146;BME280;17980;51.744;7.190;2022-09-09T14:25:41;100378.57;;;21.77;99.80
27146;BME280;17980;51.744;7.190;2022-09-09T14:28:10;100379.04;;;22.23;99.11
27146;BME280;17980;51.744;7.190;2022-09-09T14:33:18;100366.80;;;22.87;94.27
27146;BME280;17980;51.744;7.190;2022-09-09T14:35:48;100363.70;;;22.63;92.96
27146;BME280;17980;51.744;7.190;2022-09-09T14:38:17;100366.20;;;22.52;94.61
27146;BME280;17980;51.744;7.190;2022-09-09T14:40:45;100370.28;;;22.38;94.34
27146;BME280;17980;51.744;7.190;2022-09-09T14:43:13;100370.88;;;22.10;95.85
27146;BME280;17980;51.744;7.190;2022-09-09T14:45:41;100365.13;;;21.93;97.96
27146;BME280;17980;51.744;7.190;2022-09-09T14:48:09;100361.09;;;22.28;95.12
27146;BME280;17980;51.744;7.190;2022-09-09T14:50:37;100358.23;;;22.44;95.20
27146;BME280;17980;51.744;7.190;2022-09-09T14:53:06;100363.73;;;22.02;96.03
27146;BME280;17980;51.744;7.190;2022-09-09T14:55:33;100358.14;;;22.32;95.24
27146;BME280;17980;51.744;7.190;2022-09-09T14:58:01;100352.69;;;22.68;94.24
27146;BME280;17980;51.744;7.190;2022-09-09T15:00:28;100350.14;;;22.55;93.03
27146;BME280;17980;51.744;7.190;2022-09-09T15:02:56;100355.48;;;22.26;94.35
27146;BME280;17980;51.744;7.190;2022-09-09T15:08:00;100361.60;;;22.46;95.16
27146;BME280;17980;51.744;7.190;2022-09-09T15:10:27;100355.07;;;22.10;94.58
27146;BME280;17980;51.744;7.190;2022-09-09T15:12:56;100356.34;;;22.17;95.81
27146;BME280;17980;51.744;7.190;2022-09-09T15:15:24;100356.63;;;21.97;95.89
27146;BME280;17980;51.744;7.190;2022-09-09T15:17:51;100350.86;;;22.19;95.38
27146;BME280;17980;51.744;7.190;2022-09-09T15:20:18;100344.30;;;22.23;94.10
27146;BME280;17980;51.744;7.190;2022-09-09T15:25:22;100349.00;;;22.01;98.32
27146;BME280;17980;51.744;7.190;2022-09-09T15:27:49;100358.84;;;21.76;98.59